createdAt,value
2017-05-19T00:00:37.036Z,1012.60
2017-05-19T00:01:38.891Z,1012.57
2017-05-19T00:02:40.741Z,1012.50
2017-05-19T00:03:42.587Z,1012.56
2017-05-19T00:04:44.432Z,1012.54
2017-05-19T00:05:46.272Z,1012.60
2017-05-19T00:06:48.141Z,1012.62
2017-05-19T00:07:49.964Z,1012.56
2017-05-19T00:08:51.791Z,1012.52
2017-05-19T00:09:53.630Z,1012.50
2017-05-19T00:10:55.458Z,1012.55
2017-05-19T00:11:57.409Z,1012.51
2017-05-19T00:12:59.223Z,1012.52
2017-05-19T00:14:01.066Z,1012.58
2017-05-19T00:15:02.887Z,1012.56
2017-05-19T00:16:04.732Z,1012.57
2017-05-19T00:17:06.960Z,1012.53
2017-05-19T00:18:08.801Z,1012.47
2017-05-19T00:19:10.623Z,1012.47
2017-05-19T00:20:12.447Z,1012.56
2017-05-19T00:21:14.290Z,1012.55
2017-05-19T00:22:16.212Z,1012.50
2017-05-19T00:23:18.056Z,1012.56
2017-05-19T00:24:19.904Z,1012.47
2017-05-19T00:25:21.753Z,1012.51
2017-05-19T00:26:23.595Z,1012.52
2017-05-19T00:27:25.717Z,1012.62
2017-05-19T00:28:27.569Z,1012.55
2017-05-19T00:29:29.420Z,1012.53
2017-05-19T00:30:31.271Z,1012.50
2017-05-19T00:31:33.087Z,1012.56
2017-05-19T00:32:34.932Z,1012.60
2017-05-19T00:33:36.782Z,1012.60
2017-05-19T00:34:38.624Z,1012.56
2017-05-19T00:35:40.475Z,1012.53
2017-05-19T00:36:42.316Z,1012.54
2017-05-19T00:37:44.436Z,1012.55
2017-05-19T00:38:46.287Z,1012.60
2017-05-19T00:39:48.105Z,1012.58
2017-05-19T00:40:49.951Z,1012.50
2017-05-19T00:41:51.792Z,1012.48
2017-05-19T00:42:53.919Z,1012.50
2017-05-19T00:43:55.765Z,1012.51
2017-05-19T00:44:57.607Z,1012.55
2017-05-19T00:45:59.458Z,1012.51
2017-05-19T00:47:01.299Z,1012.51
2017-05-19T00:48:03.220Z,1012.51
2017-05-19T00:49:05.039Z,1012.50
2017-05-19T00:50:06.896Z,1012.46
2017-05-19T00:51:08.741Z,1012.48
2017-05-19T00:52:10.585Z,1012.50
2017-05-19T00:53:12.634Z,1012.43
2017-05-19T00:54:14.485Z,1012.45
2017-05-19T00:55:16.329Z,1012.41
2017-05-19T00:56:18.152Z,1012.44
2017-05-19T00:57:20.001Z,1012.38
2017-05-19T00:58:21.844Z,1012.40
2017-05-19T00:59:23.669Z,1012.43
2017-05-19T01:00:25.519Z,1012.45
2017-05-19T01:01:27.336Z,1012.44
2017-05-19T01:02:29.179Z,1012.38
2017-05-19T01:03:31.106Z,1012.38
2017-05-19T01:04:32.923Z,1012.47
2017-05-19T01:05:34.766Z,1012.41
2017-05-19T01:06:36.612Z,1012.38
2017-05-19T01:07:38.458Z,1012.40
2017-05-19T01:08:40.527Z,1012.41
2017-05-19T01:09:42.371Z,1012.47
2017-05-19T01:10:44.221Z,1012.47
2017-05-19T01:11:46.062Z,1012.49
2017-05-19T01:12:47.882Z,1012.47
2017-05-19T01:13:49.802Z,1012.46
2017-05-19T01:14:51.622Z,1012.48
2017-05-19T01:15:53.469Z,1012.49
2017-05-19T01:16:55.313Z,1012.48
2017-05-19T01:17:57.158Z,1012.48
2017-05-19T01:18:59.202Z,1012.50
2017-05-19T01:20:01.055Z,1012.53
2017-05-19T01:21:02.900Z,1012.54
2017-05-19T01:22:04.745Z,1012.53
2017-05-19T01:23:06.592Z,1012.53
2017-05-19T01:24:08.441Z,1012.56
2017-05-19T01:25:10.286Z,1012.52
2017-05-19T01:26:12.134Z,1012.55
2017-05-19T01:27:13.975Z,1012.59
2017-05-19T01:28:15.822Z,1012.62
2017-05-19T01:29:17.963Z,1012.55
2017-05-19T01:30:19.808Z,1012.55
2017-05-19T01:31:21.653Z,1012.52
2017-05-19T01:32:23.494Z,1012.53
2017-05-19T01:33:25.320Z,1012.55
2017-05-19T01:34:27.183Z,1012.57
2017-05-19T01:35:29.004Z,1012.57
2017-05-19T01:36:30.849Z,1012.57
2017-05-19T01:37:32.699Z,1012.54
2017-05-19T01:38:34.538Z,1012.54
2017-05-19T01:39:36.483Z,1012.58
2017-05-19T01:40:38.302Z,1012.59
2017-05-19T01:41:40.152Z,1012.60
2017-05-19T01:42:41.990Z,1012.58
2017-05-19T01:43:43.817Z,1012.56
2017-05-19T01:44:45.860Z,1012.50
2017-05-19T01:45:47.678Z,1012.51
2017-05-19T01:46:49.498Z,1012.58
2017-05-19T01:47:51.347Z,1012.58
2017-05-19T01:48:53.163Z,1012.57
2017-05-19T01:49:54.985Z,1012.53
2017-05-19T01:50:56.826Z,1012.58
2017-05-19T01:51:58.651Z,1012.60
2017-05-19T01:53:00.487Z,1012.58
2017-05-19T01:54:02.306Z,1012.51
2017-05-19T01:55:04.560Z,1012.51
2017-05-19T01:56:06.407Z,1012.50
2017-05-19T01:57:08.222Z,1012.52
2017-05-19T01:58:10.041Z,1012.57
2017-05-19T01:59:11.861Z,1012.54
2017-05-19T02:00:13.711Z,1012.52
2017-05-19T02:01:15.554Z,1012.51
2017-05-19T02:02:17.376Z,1012.53
2017-05-19T02:03:19.224Z,1012.55
2017-05-19T02:04:21.037Z,1012.51
2017-05-19T02:05:23.160Z,1012.51
2017-05-19T02:06:24.999Z,1012.50
2017-05-19T02:07:26.815Z,1012.53
2017-05-19T02:08:28.669Z,1012.51
2017-05-19T02:09:30.508Z,1012.47
2017-05-19T02:10:32.357Z,1012.45
2017-05-19T02:11:34.202Z,1012.50
2017-05-19T02:12:36.048Z,1012.57
2017-05-19T02:13:37.866Z,1012.55
2017-05-19T02:14:39.678Z,1012.55
2017-05-19T02:15:41.899Z,1012.50
2017-05-19T02:16:43.722Z,1012.55
2017-05-19T02:17:45.557Z,1012.56
2017-05-19T02:18:47.380Z,1012.54
2017-05-19T02:19:49.201Z,1012.61
2017-05-19T02:20:51.118Z,1012.61
2017-05-19T02:21:52.964Z,1012.61
2017-05-19T02:22:54.812Z,1012.57
2017-05-19T02:23:56.661Z,1012.51
2017-05-19T02:24:58.507Z,1012.54
2017-05-19T02:26:00.624Z,1012.62
2017-05-19T02:27:02.441Z,1012.65
2017-05-19T02:28:04.286Z,1012.56
2017-05-19T02:29:06.132Z,1012.55
2017-05-19T02:30:07.972Z,1012.59
2017-05-19T02:31:09.917Z,1012.61
2017-05-19T02:32:11.736Z,1012.63
2017-05-19T02:33:13.557Z,1012.61
2017-05-19T02:34:15.397Z,1012.59
2017-05-19T02:35:17.245Z,1012.57
2017-05-19T02:36:19.392Z,1012.56
2017-05-19T02:37:21.244Z,1012.58
2017-05-19T02:38:23.091Z,1012.55
2017-05-19T02:39:24.946Z,1012.55
2017-05-19T02:40:26.795Z,1012.49
2017-05-19T02:41:28.839Z,1012.45
2017-05-19T02:42:30.692Z,1012.47
2017-05-19T02:43:32.514Z,1012.48
2017-05-19T02:44:34.356Z,1012.46
2017-05-19T02:45:36.179Z,1012.42
2017-05-19T02:46:38.130Z,1012.44
2017-05-19T02:47:39.945Z,1012.39
2017-05-19T02:48:41.768Z,1012.40
2017-05-19T02:49:43.588Z,1012.41
2017-05-19T02:50:45.444Z,1012.39
2017-05-19T02:51:47.689Z,1012.41
2017-05-19T02:52:49.512Z,1012.39
2017-05-19T02:53:51.366Z,1012.42
2017-05-19T02:54:53.213Z,1012.40
2017-05-19T02:55:55.052Z,1012.43
2017-05-19T02:56:57.003Z,1012.46
2017-05-19T02:57:58.850Z,1012.39
2017-05-19T02:59:00.699Z,1012.40
2017-05-19T03:00:02.553Z,1012.37
2017-05-19T03:01:04.393Z,1012.38
2017-05-19T03:02:06.642Z,1012.39
2017-05-19T03:03:08.468Z,1012.38
2017-05-19T03:04:10.317Z,1012.38
2017-05-19T03:05:12.171Z,1012.35
2017-05-19T03:06:14.016Z,1012.35
2017-05-19T03:07:15.876Z,1012.36
2017-05-19T03:08:17.679Z,1012.34
2017-05-19T03:09:19.503Z,1012.35
2017-05-19T03:10:21.356Z,1012.34
2017-05-19T03:11:23.195Z,1012.37
2017-05-19T03:12:25.421Z,1012.35
2017-05-19T03:13:27.269Z,1012.32
2017-05-19T03:14:29.122Z,1012.36
2017-05-19T03:15:30.969Z,1012.37
2017-05-19T03:16:32.818Z,1012.34
2017-05-19T03:17:34.668Z,1012.38
2017-05-19T03:18:36.521Z,1012.38
2017-05-19T03:19:38.360Z,1012.34
2017-05-19T03:20:40.190Z,1012.36
2017-05-19T03:21:42.038Z,1012.37
2017-05-19T03:22:44.187Z,1012.35
2017-05-19T03:23:46.035Z,1012.33
2017-05-19T03:24:47.865Z,1012.33
2017-05-19T03:25:49.711Z,1012.32
2017-05-19T03:26:51.555Z,1012.38
2017-05-19T03:27:53.433Z,1012.38
2017-05-19T03:28:55.260Z,1012.40
2017-05-19T03:29:57.108Z,1012.41
2017-05-19T03:30:58.966Z,1012.43
2017-05-19T03:32:00.813Z,1012.43
2017-05-19T03:33:02.865Z,1012.45
2017-05-19T03:34:04.694Z,1012.47
2017-05-19T03:35:06.547Z,1012.45
2017-05-19T03:36:08.397Z,1012.48
2017-05-19T03:37:10.230Z,1012.46
2017-05-19T03:38:12.180Z,1012.43
2017-05-19T03:39:14.029Z,1012.43
2017-05-19T03:40:15.859Z,1012.42
2017-05-19T03:41:17.686Z,1012.41
2017-05-19T03:42:19.522Z,1012.40
2017-05-19T03:43:21.666Z,1012.42
2017-05-19T03:44:23.500Z,1012.47
2017-05-19T03:45:25.350Z,1012.46
2017-05-19T03:46:27.197Z,1012.49
2017-05-19T03:47:29.028Z,1012.50
2017-05-19T03:48:30.975Z,1012.46
2017-05-19T03:49:32.809Z,1012.50
2017-05-19T03:50:34.660Z,1012.51
2017-05-19T03:51:36.493Z,1012.54
2017-05-19T03:52:38.343Z,1012.56
2017-05-19T03:53:40.400Z,1012.58
2017-05-19T03:54:42.226Z,1012.47
2017-05-19T03:55:44.045Z,1012.49
2017-05-19T03:56:45.881Z,1012.48
2017-05-19T03:57:47.704Z,1012.53
2017-05-19T03:58:49.559Z,1012.51
2017-05-19T03:59:51.387Z,1012.51
2017-05-19T04:00:53.219Z,1012.50
2017-05-19T04:01:55.074Z,1012.48
2017-05-19T04:02:56.931Z,1012.51
2017-05-19T04:03:59.152Z,1012.51
2017-05-19T04:05:00.977Z,1012.50
2017-05-19T04:06:02.810Z,1012.52
2017-05-19T04:07:04.639Z,1012.51
2017-05-19T04:08:06.493Z,1012.49
2017-05-19T04:09:08.349Z,1012.48
2017-05-19T04:10:10.178Z,1012.52
2017-05-19T04:11:12.031Z,1012.50
2017-05-19T04:12:13.885Z,1012.49
2017-05-19T04:13:15.741Z,1012.53
2017-05-19T04:14:17.703Z,1012.53
2017-05-19T04:15:19.555Z,1012.54
2017-05-19T04:16:21.429Z,1012.51
2017-05-19T04:17:23.284Z,1012.53
2017-05-19T04:18:25.124Z,1012.56
2017-05-19T04:19:27.382Z,1012.53
2017-05-19T04:20:29.242Z,1012.54
2017-05-19T04:21:31.095Z,1012.51
2017-05-19T04:22:32.929Z,1012.53
2017-05-19T04:23:34.789Z,1012.55
2017-05-19T04:24:36.641Z,1012.56
2017-05-19T04:25:38.500Z,1012.59
2017-05-19T04:26:40.334Z,1012.57
2017-05-19T04:27:42.188Z,1012.59
2017-05-19T04:28:44.026Z,1012.57
2017-05-19T04:29:45.987Z,1012.57
2017-05-19T04:30:47.836Z,1012.59
2017-05-19T04:31:49.699Z,1012.56
2017-05-19T04:32:51.558Z,1012.57
2017-05-19T04:33:53.414Z,1012.54
2017-05-19T04:34:55.296Z,1012.58
2017-05-19T04:35:57.125Z,1012.56
2017-05-19T04:36:58.957Z,1012.56
2017-05-19T04:38:00.791Z,1012.54
2017-05-19T04:39:02.629Z,1012.53
2017-05-19T04:40:04.586Z,1012.57
2017-05-19T04:41:06.441Z,1012.59
2017-05-19T04:42:08.277Z,1012.55
2017-05-19T04:43:10.135Z,1012.57
2017-05-19T04:44:11.967Z,1012.57
2017-05-19T04:45:13.829Z,1012.53
2017-05-19T04:46:15.688Z,1012.55
2017-05-19T04:47:17.545Z,1012.58
2017-05-19T04:48:19.406Z,1012.52
2017-05-19T04:49:21.268Z,1012.52
2017-05-19T04:50:23.151Z,1012.55
2017-05-19T04:51:24.984Z,1012.53
2017-05-19T04:52:26.847Z,1012.54
2017-05-19T04:53:28.682Z,1012.52
2017-05-19T04:54:30.547Z,1012.55
2017-05-19T04:55:32.508Z,1012.53
2017-05-19T04:56:34.344Z,1012.55
2017-05-19T04:57:36.200Z,1012.53
2017-05-19T04:58:38.033Z,1012.55
2017-05-19T04:59:39.894Z,1012.57
2017-05-19T05:00:41.955Z,1012.56
2017-05-19T05:01:43.815Z,1012.54
2017-05-19T05:02:45.667Z,1012.51
2017-05-19T05:03:47.529Z,1012.56
2017-05-19T05:04:49.387Z,1012.56
2017-05-19T05:05:51.321Z,1012.57
2017-05-19T05:06:53.157Z,1012.62
2017-05-19T05:07:54.992Z,1012.65
2017-05-19T05:08:56.849Z,1012.66
2017-05-19T05:09:58.702Z,1012.60
2017-05-19T05:11:00.587Z,1012.51
2017-05-19T05:12:02.444Z,1012.41
2017-05-19T05:13:04.277Z,1012.43
2017-05-19T05:14:06.125Z,1012.40
2017-05-19T05:15:07.975Z,1012.40
2017-05-19T05:16:10.027Z,1012.41
2017-05-19T05:17:11.867Z,1012.39
2017-05-19T05:18:13.725Z,1012.39
2017-05-19T05:19:15.584Z,1012.37
2017-05-19T05:20:17.436Z,1012.38
2017-05-19T05:21:19.369Z,1012.38
2017-05-19T05:22:21.225Z,1012.37
2017-05-19T05:23:23.090Z,1012.38
2017-05-19T05:24:24.941Z,1012.43
2017-05-19T05:25:26.798Z,1012.44
2017-05-19T05:26:29.058Z,1012.40
2017-05-19T05:27:30.909Z,1012.39
2017-05-19T05:28:32.738Z,1012.39
2017-05-19T05:29:34.596Z,1012.40
2017-05-19T05:30:36.427Z,1012.37
2017-05-19T05:31:38.380Z,1012.34
2017-05-19T05:32:40.239Z,1012.36
2017-05-19T05:33:42.088Z,1012.32
2017-05-19T05:34:43.921Z,1012.33
2017-05-19T05:35:45.776Z,1012.31
2017-05-19T05:36:47.830Z,1012.29
2017-05-19T05:37:49.664Z,1012.34
2017-05-19T05:38:51.516Z,1012.39
2017-05-19T05:39:53.373Z,1012.33
2017-05-19T05:40:55.226Z,1012.37
2017-05-19T05:41:57.079Z,1012.37
2017-05-19T05:42:58.934Z,1012.38
2017-05-19T05:44:00.763Z,1012.36
2017-05-19T05:45:02.591Z,1012.35
2017-05-19T05:46:04.424Z,1012.37
2017-05-19T05:47:06.367Z,1012.39
2017-05-19T05:48:08.197Z,1012.42
2017-05-19T05:49:10.054Z,1012.39
2017-05-19T05:50:11.909Z,1012.40
2017-05-19T05:51:13.740Z,1012.38
2017-05-19T05:52:15.593Z,1012.38
2017-05-19T05:53:17.448Z,1012.39
2017-05-19T05:54:19.306Z,1012.42
2017-05-19T05:55:21.157Z,1012.38
2017-05-19T05:56:22.982Z,1012.38
2017-05-19T05:57:24.865Z,1012.36
2017-05-19T05:58:26.714Z,1012.34
2017-05-19T05:59:28.551Z,1012.33
2017-05-19T06:00:30.398Z,1012.33
2017-05-19T06:01:32.255Z,1012.32
2017-05-19T06:02:34.130Z,1012.33
2017-05-19T06:03:35.980Z,1012.32
2017-05-19T06:04:37.819Z,1012.33
2017-05-19T06:05:39.664Z,1012.30
2017-05-19T06:06:41.520Z,1012.29
2017-05-19T06:07:43.823Z,1012.25
2017-05-19T06:08:45.653Z,1012.27
2017-05-19T06:09:47.510Z,1012.27
2017-05-19T06:10:49.361Z,1012.23
2017-05-19T06:11:51.215Z,1012.23
2017-05-19T06:12:53.376Z,1012.22
2017-05-19T06:13:55.204Z,1012.21
2017-05-19T06:14:57.060Z,1012.21
2017-05-19T06:15:58.911Z,1012.21
2017-05-19T06:17:00.758Z,1012.15
2017-05-19T06:18:02.634Z,1012.15
2017-05-19T06:19:04.471Z,1012.15
2017-05-19T06:20:06.323Z,1012.19
2017-05-19T06:21:08.145Z,1012.19
2017-05-19T06:22:09.968Z,1012.19
2017-05-19T06:23:12.198Z,1012.21
2017-05-19T06:24:14.025Z,1012.17
2017-05-19T06:25:15.853Z,1012.18
2017-05-19T06:26:17.706Z,1012.10
2017-05-19T06:27:19.567Z,1012.14
2017-05-19T06:28:21.621Z,1012.12
2017-05-19T06:29:23.466Z,1012.04
2017-05-19T06:30:25.334Z,1012.16
2017-05-19T06:31:27.189Z,1012.16
2017-05-19T06:32:29.036Z,1012.15
2017-05-19T06:33:30.912Z,1012.09
2017-05-19T06:34:32.773Z,1012.09
2017-05-19T06:35:34.627Z,1012.11
2017-05-19T06:36:36.481Z,1012.12
2017-05-19T06:37:38.340Z,1012.02
2017-05-19T06:38:40.210Z,1012.09
2017-05-19T06:39:42.068Z,1012.07
2017-05-19T06:40:43.923Z,1012.06
2017-05-19T06:41:45.768Z,1012.06
2017-05-19T06:42:47.598Z,1012.08
2017-05-19T06:43:49.553Z,1012.06
2017-05-19T06:44:51.403Z,1011.99
2017-05-19T06:45:53.264Z,1012.02
2017-05-19T06:46:55.091Z,1011.99
2017-05-19T06:47:56.943Z,1011.95
2017-05-19T06:48:59.102Z,1011.98
2017-05-19T06:50:00.956Z,1011.90
2017-05-19T06:51:02.810Z,1011.96
2017-05-19T06:52:04.658Z,1011.92
2017-05-19T06:53:06.515Z,1011.92
2017-05-19T06:54:08.570Z,1011.89
2017-05-19T06:55:10.418Z,1011.92
2017-05-19T06:56:12.245Z,1011.90
2017-05-19T06:57:14.077Z,1011.90
2017-05-19T06:58:15.927Z,1011.87
2017-05-19T06:59:17.803Z,1011.83
2017-05-19T07:00:19.660Z,1011.86
2017-05-19T07:01:21.515Z,1011.89
2017-05-19T07:02:23.370Z,1011.85
2017-05-19T07:03:25.196Z,1011.86
2017-05-19T07:04:27.069Z,1011.88
2017-05-19T07:05:28.929Z,1011.87
2017-05-19T07:06:30.751Z,1011.86
2017-05-19T07:07:32.578Z,1011.91
2017-05-19T07:08:34.411Z,1011.87
2017-05-19T07:09:36.634Z,1011.86
2017-05-19T07:10:38.464Z,1011.92
2017-05-19T07:11:40.319Z,1011.86
2017-05-19T07:12:42.171Z,1011.84
2017-05-19T07:13:43.994Z,1011.85
2017-05-19T07:14:45.880Z,1011.83
2017-05-19T07:15:47.725Z,1011.87
2017-05-19T07:16:49.579Z,1011.83
2017-05-19T07:17:51.411Z,1011.84
2017-05-19T07:18:53.264Z,1011.85
2017-05-19T07:19:55.147Z,1011.85
2017-05-19T07:20:57.000Z,1011.86
2017-05-19T07:21:58.849Z,1011.92
2017-05-19T07:23:00.675Z,1011.92
2017-05-19T07:24:02.531Z,1011.91
2017-05-19T07:25:04.682Z,1011.89
2017-05-19T07:26:06.512Z,1011.92
2017-05-19T07:27:08.360Z,1011.87
2017-05-19T07:28:10.190Z,1011.92
2017-05-19T07:29:12.051Z,1011.87
2017-05-19T07:30:14.014Z,1011.91
2017-05-19T07:31:15.861Z,1011.93
2017-05-19T07:32:17.720Z,1011.91
2017-05-19T07:33:19.574Z,1011.88
2017-05-19T07:34:21.429Z,1011.92
2017-05-19T07:35:23.633Z,1011.92
2017-05-19T07:36:25.487Z,1011.94
2017-05-19T07:37:27.317Z,1011.88
2017-05-19T07:38:29.165Z,1011.94
2017-05-19T07:39:30.995Z,1011.90
2017-05-19T07:40:32.850Z,1011.91
2017-05-19T07:41:34.678Z,1011.86
2017-05-19T07:42:36.538Z,1011.80
2017-05-19T07:43:38.397Z,1011.84
2017-05-19T07:44:40.247Z,1011.80
2017-05-19T07:45:42.295Z,1011.79
2017-05-19T07:46:44.124Z,1011.78
2017-05-19T07:47:45.981Z,1011.78
2017-05-19T07:48:47.842Z,1011.77
2017-05-19T07:49:49.688Z,1011.77
2017-05-19T07:50:51.644Z,1011.78
2017-05-19T07:51:53.499Z,1011.76
2017-05-19T07:52:55.353Z,1011.72
2017-05-19T07:53:57.205Z,1011.75
2017-05-19T07:54:59.062Z,1011.73
2017-05-19T07:56:01.089Z,1011.72
2017-05-19T07:57:02.921Z,1011.72
2017-05-19T07:58:04.778Z,1011.77
2017-05-19T07:59:06.628Z,1011.70
2017-05-19T08:00:08.454Z,1011.74
2017-05-19T08:01:10.658Z,1011.71
2017-05-19T08:02:12.494Z,1011.71
2017-05-19T08:03:14.347Z,1011.70
2017-05-19T08:04:16.200Z,1011.72
2017-05-19T08:05:18.078Z,1011.70
2017-05-19T08:06:20.335Z,1011.72
2017-05-19T08:07:22.179Z,1011.70
2017-05-19T08:08:24.041Z,1011.73
2017-05-19T08:09:25.895Z,1011.73
2017-05-19T08:10:27.756Z,1011.70
2017-05-19T08:11:29.620Z,1011.71
2017-05-19T08:12:31.473Z,1011.69
2017-05-19T08:13:33.325Z,1011.70
2017-05-19T08:14:35.179Z,1011.74
2017-05-19T08:15:37.032Z,1011.71
2017-05-19T08:16:39.245Z,1011.74
2017-05-19T08:17:41.100Z,1011.71
2017-05-19T08:18:42.972Z,1011.74
2017-05-19T08:19:44.829Z,1011.72
2017-05-19T08:20:46.681Z,1011.72
2017-05-19T08:21:48.680Z,1011.76
2017-05-19T08:22:50.499Z,1011.68
2017-05-19T08:23:52.330Z,1011.66
2017-05-19T08:24:54.184Z,1011.67
2017-05-19T08:25:56.011Z,1011.70
2017-05-19T08:26:57.889Z,1011.72
2017-05-19T08:27:59.715Z,1011.70
2017-05-19T08:29:01.573Z,1011.75
2017-05-19T08:30:03.399Z,1011.68
2017-05-19T08:31:05.252Z,1011.79
2017-05-19T08:32:07.510Z,1011.74
2017-05-19T08:33:09.365Z,1011.79
2017-05-19T08:34:11.225Z,1011.73
2017-05-19T08:35:13.072Z,1011.68
2017-05-19T08:36:14.908Z,1011.70
2017-05-19T08:37:16.762Z,1011.73
2017-05-19T08:38:18.611Z,1011.71
2017-05-19T08:39:20.441Z,1011.65
2017-05-19T08:40:22.275Z,1011.66
2017-05-19T08:41:24.130Z,1011.70
2017-05-19T08:42:25.981Z,1011.70
2017-05-19T08:43:27.840Z,1011.66
2017-05-19T08:44:29.668Z,1011.65
2017-05-19T08:45:31.522Z,1011.68
2017-05-19T08:46:33.353Z,1011.71
2017-05-19T08:47:35.205Z,1011.73
2017-05-19T08:48:37.036Z,1011.73
2017-05-19T08:49:38.890Z,1011.70
2017-05-19T08:50:40.746Z,1011.67
2017-05-19T08:51:42.600Z,1011.66
2017-05-19T08:52:44.759Z,1011.65
2017-05-19T08:53:46.618Z,1011.61
2017-05-19T08:54:48.469Z,1011.63
2017-05-19T08:55:50.299Z,1011.61
2017-05-19T08:56:52.161Z,1011.63
2017-05-19T08:57:54.014Z,1011.66
2017-05-19T08:58:55.872Z,1011.62
2017-05-19T08:59:57.732Z,1011.67
2017-05-19T09:00:59.587Z,1011.66
2017-05-19T09:02:01.436Z,1011.68
2017-05-19T09:03:03.314Z,1011.69
2017-05-19T09:04:05.166Z,1011.65
2017-05-19T09:05:07.018Z,1011.61
2017-05-19T09:06:08.872Z,1011.58
2017-05-19T09:07:10.705Z,1011.60
2017-05-19T09:08:12.554Z,1011.61
2017-05-19T09:09:14.389Z,1011.58
2017-05-19T09:10:16.241Z,1011.60
2017-05-19T09:11:18.095Z,1011.61
2017-05-19T09:12:19.954Z,1011.65
2017-05-19T09:13:21.910Z,1011.59
2017-05-19T09:14:23.762Z,1011.59
2017-05-19T09:15:25.617Z,1011.61
2017-05-19T09:16:27.476Z,1011.62
2017-05-19T09:17:29.305Z,1011.59
2017-05-19T09:18:31.357Z,1011.62
2017-05-19T09:19:33.217Z,1011.62
2017-05-19T09:20:35.044Z,1011.63
2017-05-19T09:21:36.873Z,1011.57
2017-05-19T09:22:38.735Z,1011.59
2017-05-19T09:23:40.589Z,1011.59
2017-05-19T09:24:42.440Z,1011.60
2017-05-19T09:25:44.298Z,1011.60
2017-05-19T09:26:46.157Z,1011.59
2017-05-19T09:27:48.011Z,1011.58
2017-05-19T09:28:50.066Z,1011.52
2017-05-19T09:29:51.922Z,1011.51
2017-05-19T09:30:53.777Z,1011.57
2017-05-19T09:31:55.632Z,1011.55
2017-05-19T09:32:57.485Z,1011.50
2017-05-19T09:33:59.711Z,1011.49
2017-05-19T09:35:01.542Z,1011.52
2017-05-19T09:36:03.398Z,1011.50
2017-05-19T09:37:05.228Z,1011.51
2017-05-19T09:38:07.085Z,1011.49
2017-05-19T09:39:08.961Z,1011.47
2017-05-19T09:40:10.819Z,1011.47
2017-05-19T09:41:12.671Z,1011.44
2017-05-19T09:42:14.526Z,1011.42
2017-05-19T09:43:16.385Z,1011.42
2017-05-19T09:44:18.238Z,1011.44
2017-05-19T09:45:20.065Z,1011.41
2017-05-19T09:46:21.900Z,1011.44
2017-05-19T09:47:23.725Z,1011.43
2017-05-19T09:48:25.559Z,1011.44
2017-05-19T09:49:27.611Z,1011.45
2017-05-19T09:50:29.435Z,1011.42
2017-05-19T09:51:31.300Z,1011.40
2017-05-19T09:52:33.148Z,1011.38
2017-05-19T09:53:35.006Z,1011.41
2017-05-19T09:54:37.129Z,1011.36
2017-05-19T09:55:38.988Z,1011.39
2017-05-19T09:56:40.846Z,1011.36
2017-05-19T09:57:42.693Z,1011.31
2017-05-19T09:58:44.516Z,1011.33
2017-05-19T09:59:46.849Z,1011.35
2017-05-19T10:00:48.704Z,1011.34
2017-05-19T10:01:50.559Z,1011.36
2017-05-19T10:02:52.419Z,1011.33
2017-05-19T10:03:54.275Z,1011.32
2017-05-19T10:04:56.133Z,1011.29
2017-05-19T10:05:57.960Z,1011.32
2017-05-19T10:06:59.821Z,1011.20
2017-05-19T10:08:01.673Z,1011.23
2017-05-19T10:09:03.532Z,1011.21
2017-05-19T10:10:05.583Z,1011.25
2017-05-19T10:11:07.445Z,1011.21
2017-05-19T10:12:09.298Z,1011.24
2017-05-19T10:13:11.149Z,1011.20
2017-05-19T10:14:12.985Z,1011.21
2017-05-19T10:15:14.838Z,1011.17
2017-05-19T10:16:16.668Z,1011.20
2017-05-19T10:17:18.515Z,1011.16
2017-05-19T10:18:20.376Z,1011.15
2017-05-19T10:19:22.209Z,1011.18
2017-05-19T10:20:24.069Z,1011.15
2017-05-19T10:21:25.922Z,1011.16
2017-05-19T10:22:27.775Z,1011.18
2017-05-19T10:23:29.634Z,1011.17
2017-05-19T10:24:31.490Z,1011.22
2017-05-19T10:25:33.367Z,1011.17
2017-05-19T10:26:35.222Z,1011.19
2017-05-19T10:27:37.081Z,1011.17
2017-05-19T10:28:38.939Z,1011.19
2017-05-19T10:29:40.789Z,1011.18
2017-05-19T10:30:42.744Z,1011.17
2017-05-19T10:31:44.598Z,1011.08
2017-05-19T10:32:46.428Z,1011.12
2017-05-19T10:33:48.267Z,1011.13
2017-05-19T10:34:50.116Z,1011.08
2017-05-19T10:35:52.045Z,1011.06
2017-05-19T10:36:53.905Z,1011.09
2017-05-19T10:37:55.762Z,1011.06
2017-05-19T10:38:57.606Z,1011.05
2017-05-19T10:39:59.440Z,1011.09
2017-05-19T10:41:01.296Z,1011.07
2017-05-19T10:42:03.154Z,1011.05
2017-05-19T10:43:05.011Z,1011.01
2017-05-19T10:44:06.864Z,1011.02
2017-05-19T10:45:08.721Z,1011.02
2017-05-19T10:46:10.777Z,1011.08
2017-05-19T10:47:12.605Z,1011.05
2017-05-19T10:48:14.463Z,1011.02
2017-05-19T10:49:16.304Z,1011.03
2017-05-19T10:50:18.139Z,1010.99
2017-05-19T10:51:20.016Z,1011.01
2017-05-19T10:52:21.871Z,1010.99
2017-05-19T10:53:23.732Z,1011.04
2017-05-19T10:54:25.591Z,1011.02
2017-05-19T10:55:27.416Z,1010.99
2017-05-19T10:56:29.569Z,1010.99
2017-05-19T10:57:31.429Z,1010.97
2017-05-19T10:58:33.283Z,1011.02
2017-05-19T10:59:35.115Z,1010.94
2017-05-19T11:00:36.966Z,1010.97
2017-05-19T11:01:38.900Z,1010.95
2017-05-19T11:02:40.754Z,1010.91
2017-05-19T11:03:42.613Z,1010.94
2017-05-19T11:04:44.470Z,1010.95
2017-05-19T11:05:46.317Z,1010.96
2017-05-19T11:06:48.174Z,1010.97
2017-05-19T11:07:50.006Z,1010.99
2017-05-19T11:08:51.864Z,1010.94
2017-05-19T11:09:53.721Z,1010.92
2017-05-19T11:10:55.549Z,1010.89
2017-05-19T11:11:57.401Z,1010.91
2017-05-19T11:12:59.232Z,1010.89
2017-05-19T11:14:01.094Z,1010.86
2017-05-19T11:15:02.947Z,1010.88
2017-05-19T11:16:04.801Z,1010.88
2017-05-19T11:17:06.679Z,1010.86
2017-05-19T11:18:08.533Z,1010.89
2017-05-19T11:19:10.387Z,1010.86
2017-05-19T11:20:12.215Z,1010.87
2017-05-19T11:21:14.043Z,1010.85
2017-05-19T11:22:15.950Z,1010.86
2017-05-19T11:23:17.777Z,1010.84
2017-05-19T11:24:19.612Z,1010.88
2017-05-19T11:25:21.464Z,1010.84
2017-05-19T11:26:23.324Z,1010.89
2017-05-19T11:27:25.450Z,1010.89
2017-05-19T11:28:27.316Z,1010.89
2017-05-19T11:29:29.168Z,1010.85
2017-05-19T11:30:31.024Z,1010.84
2017-05-19T11:31:32.888Z,1010.84
2017-05-19T11:32:34.740Z,1010.81
2017-05-19T11:33:36.600Z,1010.84
2017-05-19T11:34:38.455Z,1010.83
2017-05-19T11:35:40.322Z,1010.82
2017-05-19T11:36:42.171Z,1010.75
2017-05-19T11:37:44.030Z,1010.77
2017-05-19T11:38:45.889Z,1010.77
2017-05-19T11:39:47.744Z,1010.79
2017-05-19T11:40:49.602Z,1010.78
2017-05-19T11:41:51.456Z,1010.76
2017-05-19T11:42:53.315Z,1010.77
2017-05-19T11:43:55.170Z,1010.75
2017-05-19T11:44:57.028Z,1010.73
2017-05-19T11:45:58.884Z,1010.75
2017-05-19T11:47:00.741Z,1010.75
2017-05-19T11:48:02.670Z,1010.75
2017-05-19T11:49:04.520Z,1010.73
2017-05-19T11:50:06.382Z,1010.69
2017-05-19T11:51:08.233Z,1010.70
2017-05-19T11:52:10.088Z,1010.72
2017-05-19T11:53:12.118Z,1010.69
2017-05-19T11:54:13.978Z,1010.71
2017-05-19T11:55:15.833Z,1010.69
2017-05-19T11:56:17.693Z,1010.69
2017-05-19T11:57:19.546Z,1010.68
2017-05-19T11:58:21.399Z,1010.68
2017-05-19T11:59:23.235Z,1010.71
2017-05-19T12:00:25.096Z,1010.70
2017-05-19T12:01:26.955Z,1010.64
2017-05-19T12:02:28.808Z,1010.63
2017-05-19T12:03:30.814Z,1010.64
2017-05-19T12:04:32.670Z,1010.61
2017-05-19T12:05:34.527Z,1010.59
2017-05-19T12:06:36.384Z,1010.62
2017-05-19T12:07:38.214Z,1010.60
2017-05-19T12:08:40.170Z,1010.57
2017-05-19T12:09:42.028Z,1010.57
2017-05-19T12:10:43.886Z,1010.60
2017-05-19T12:11:45.745Z,1010.57
2017-05-19T12:12:47.597Z,1010.53
2017-05-19T12:13:49.458Z,1010.50
2017-05-19T12:14:51.320Z,1010.52
2017-05-19T12:15:53.172Z,1010.51
2017-05-19T12:16:55.010Z,1010.49
2017-05-19T12:17:56.865Z,1010.53
2017-05-19T12:18:58.974Z,1010.51
2017-05-19T12:20:00.797Z,1010.52
2017-05-19T12:21:02.630Z,1010.51
2017-05-19T12:22:04.491Z,1010.46
2017-05-19T12:23:06.343Z,1010.48
2017-05-19T12:24:08.225Z,1010.46
2017-05-19T12:25:10.087Z,1010.46
2017-05-19T12:26:11.914Z,1010.39
2017-05-19T12:27:13.770Z,1010.44
2017-05-19T12:28:15.598Z,1010.47